Time;durP1;ratioP1;P1;durP2;ratioP2;P2;SDS_P1;SDS_P2;PMS_P1;PMS_P2;Temp;Humidity;BMP_temperature;BMP_pressure;BME280_temperature;BME280_humidity;BME280_pressure;Samples;Min_cycle;Max_cycle;Signal;HPM_P1;HPM_P2
2021/10/14 00:00:09;;;;;;;6.07;4.60;;;8.60;99.90;;;;;;5009727;28;20210;-66
2021/10/14 00:02:36;;;;;;;4.63;3.77;;;8.70;99.90;;;;;;5004942;28;20584;-66
2021/10/14 00:05:02;;;;;;;3.80;3.17;;;8.70;99.90;;;;;;5001852;28;20515;-67
2021/10/14 00:07:28;;;;;;;4.07;3.63;;;8.70;99.90;;;;;;5006216;28;20535;-67
2021/10/14 00:09:54;;;;;;;5.27;3.87;;;8.60;99.90;;;;;;5004297;28;20440;-67
2021/10/14 00:12:19;;;;;;;4.47;3.30;;;8.40;99.90;;;;;;5003595;28;20196;-67
2021/10/14 00:14:45;;;;;;;4.67;3.57;;;8.60;99.90;;;;;;5005150;28;20188;-67
2021/10/14 00:17:10;;;;;;;4.70;3.63;;;8.60;99.90;;;;;;5004542;28;20216;-67
2021/10/14 00:19:36;;;;;;;7.43;3.23;;;8.50;99.90;;;;;;5006556;28;20208;-66
2021/10/14 00:22:02;;;;;;;6.33;3.50;;;8.40;99.90;;;;;;5005109;28;20663;-67
2021/10/14 00:24:30;;;;;;;6.60;3.40;;;8.40;99.90;;;;;;5002643;28;20826;-66
2021/10/14 00:26:59;;;;;;;4.27;3.40;;;8.40;99.90;;;;;;5006733;28;20231;-67
2021/10/14 00:29:25;;;;;;;5.30;3.60;;;8.30;99.90;;;;;;5005972;28;20850;-68
2021/10/14 00:31:51;;;;;;;3.67;3.13;;;8.40;99.90;;;;;;5006632;28;20447;-67
2021/10/14 00:34:16;;;;;;;4.60;3.30;;;8.40;99.90;;;;;;5004896;28;20668;-67
2021/10/14 00:36:42;;;;;;;4.63;3.70;;;8.60;99.90;;;;;;5006181;28;20647;-67
2021/10/14 00:39:08;;;;;;;4.80;3.43;;;8.60;99.90;;;;;;5007144;28;20216;-67
2021/10/14 00:41:33;;;;;;;3.87;3.47;;;8.60;99.90;;;;;;5004627;28;20485;-67
2021/10/14 00:43:59;;;;;;;7.70;3.60;;;8.60;99.90;;;;;;5008801;28;20200;-66
2021/10/14 00:46:25;;;;;;;4.97;3.33;;;8.80;99.90;;;;;;5003536;28;20302;-66
2021/10/14 00:48:52;;;;;;;4.70;2.70;;;8.60;99.90;;;;;;5003188;28;20476;-65
2021/10/14 00:51:18;;;;;;;4.07;3.03;;;8.60;99.90;;;;;;5008700;28;20821;-67
2021/10/14 00:53:45;;;;;;;4.10;3.50;;;8.40;99.90;;;;;;5005026;28;20443;-67
2021/10/14 00:56:11;;;;;;;3.97;3.07;;;8.40;99.90;;;;;;5003896;28;20570;-66
2021/10/14 00:58:40;;;;;;;4.10;3.03;;;8.30;99.90;;;;;;5006541;28;20575;-66
2021/10/14 01:01:05;;;;;;;3.70;3.10;;;8.60;99.90;;;;;;5004401;28;20195;-67
2021/10/14 01:03:32;;;;;;;5.40;3.23;;;8.40;99.90;;;;;;5003900;28;20436;-67
2021/10/14 01:05:58;;;;;;;3.90;2.90;;;8.30;99.90;;;;;;5007385;28;20193;-67
2021/10/14 01:08:24;;;;;;;3.80;3.17;;;8.50;99.90;;;;;;5004962;28;20460;-67
2021/10/14 01:10:51;;;;;;;5.90;2.80;;;8.60;99.90;;;;;;5006214;28;20931;-67
2021/10/14 01:13:18;;;;;;;4.63;2.80;;;8.70;99.90;;;;;;5005557;28;20855;-66
2021/10/14 01:15:44;;;;;;;3.30;3.00;;;8.50;99.90;;;;;;5003170;28;20495;-67
2021/10/14 01:18:11;;;;;;;4.10;3.13;;;8.40;99.90;;;;;;5006726;28;21001;-67
2021/10/14 01:20:37;;;;;;;5.20;3.10;;;8.20;99.90;;;;;;5002741;28;20478;-66
2021/10/14 01:23:02;;;;;;;3.43;2.83;;;8.30;99.90;;;;;;5003855;28;20452;-67
2021/10/14 01:25:30;;;;;;;4.30;2.97;;;8.30;99.90;;;;;;5006159;28;20676;-67
2021/10/14 01:27:56;;;;;;;4.03;2.73;;;8.10;99.90;;;;;;5005155;28;20226;-67
2021/10/14 01:30:23;;;;;;;3.70;3.20;;;8.10;99.90;;;;;;5004289;28;20854;-67
2021/10/14 01:32:49;;;;;;;3.87;2.90;;;8.10;99.90;;;;;;5008909;28;20486;-66
2021/10/14 01:35:19;;;;;;;3.23;2.73;;;8.20;99.90;;;;;;5008413;28;20518;-67
2021/10/14 01:37:45;;;;;;;3.87;3.27;;;8.00;99.90;;;;;;5006383;28;20878;-67
2021/10/14 01:40:12;;;;;;;4.70;3.30;;;7.90;99.90;;;;;;5010792;28;20846;-67
2021/10/14 01:42:38;;;;;;;5.37;3.10;;;8.20;99.90;;;;;;5009035;28;20515;-67
2021/10/14 01:45:04;;;;;;;4.17;3.73;;;8.10;99.90;;;;;;5006745;28;20536;-67
2021/10/14 01:47:33;;;;;;;4.03;3.00;;;8.10;99.90;;;;;;5010364;28;20221;-67
2021/10/14 01:49:59;;;;;;;5.93;3.20;;;8.10;99.90;;;;;;5010328;28;20938;-67
2021/10/14 01:52:24;;;;;;;3.77;3.37;;;8.00;99.90;;;;;;5005772;28;20468;-67
2021/10/14 01:54:50;;;;;;;8.83;3.57;;;8.10;99.90;;;;;;5008542;28;20660;-66
2021/10/14 01:57:16;;;;;;;3.83;3.20;;;8.10;99.90;;;;;;5006380;28;20213;-67
2021/10/14 01:59:42;;;;;;;4.03;3.50;;;8.10;99.90;;;;;;5006169;28;21047;-66
2021/10/14 02:02:08;;;;;;;2.97;2.50;;;8.00;99.90;;;;;;5005609;28;20522;-67
2021/10/14 02:04:34;;;;;;;4.90;3.50;;;8.00;99.90;;;;;;5005861;28;20957;-67
2021/10/14 02:06:59;;;;;;;3.83;3.03;;;8.00;99.90;;;;;;5006195;28;20478;-67
2021/10/14 02:09:25;;;;;;;4.57;3.00;;;8.00;99.90;;;;;;5008200;28;20446;-66
2021/10/14 02:11:51;;;;;;;6.27;3.50;;;8.10;99.90;;;;;;5005327;28;20197;-66
2021/10/14 02:14:16;;;;;;;5.83;3.33;;;8.10;99.90;;;;;;5007099;28;20279;-67
2021/10/14 02:16:42;;;;;;;3.70;3.03;;;8.00;99.90;;;;;;5005231;28;20260;-66
2021/10/14 02:19:08;;;;;;;4.43;3.00;;;8.20;99.90;;;;;;5005700;28;20212;-66
2021/10/14 02:21:33;;;;;;;3.20;2.90;;;8.10;99.90;;;;;;5008399;28;20494;-66
2021/10/14 02:23:59;;;;;;;3.57;2.97;;;8.20;99.90;;;;;;5006031;28;20694;-67
2021/10/14 02:26:25;;;;;;;3.33;2.83;;;8.20;99.90;;;;;;5006670;28;20593;-67
2021/10/14 02:28:50;;;;;;;3.60;3.00;;;8.00;99.90;;;;;;5010143;28;20212;-66
2021/10/14 02:31:16;;;;;;;4.53;3.60;;;7.90;99.90;;;;;;5002876;28;20193;-67
2021/10/14 02:33:41;;;;;;;4.00;3.30;;;7.80;99.90;;;;;;5005924;28;20192;-67
2021/10/14 02:36:07;;;;;;;3.80;3.40;;;8.00;99.90;;;;;;5009423;28;20177;-67
2021/10/14 02:38:33;;;;;;;3.70;3.27;;;8.20;99.90;;;;;;5004069;28;20300;-67
2021/10/14 02:40:58;;;;;;;4.27;3.50;;;8.10;99.90;;;;;;5006518;28;20236;-67
2021/10/14 02:43:24;;;;;;;4.63;2.93;;;8.20;99.90;;;;;;5008507;28;20197;-66
2021/10/14 02:45:50;;;;;;;4.87;3.00;;;8.10;99.90;;;;;;5002046;28;20197;-67
2021/10/14 02:48:15;;;;;;;3.93;3.37;;;8.10;99.90;;;;;;5005311;28;20223;-67
2021/10/14 02:50:41;;;;;;;4.37;3.37;;;8.00;99.90;;;;;;5010982;28;20281;-68
2021/10/14 02:53:06;;;;;;;4.50;3.60;;;8.00;99.90;;;;;;5002290;28;20193;-66
2021/10/14 02:55:32;;;;;;;4.10;3.20;;;8.10;99.90;;;;;;5007481;28;20200;-67
2021/10/14 02:57:58;;;;;;;5.90;3.60;;;8.00;99.90;;;;;;5007615;28;20250;-67
2021/10/14 03:00:23;;;;;;;4.10;3.60;;;8.10;99.90;;;;;;5007798;28;20319;-67
2021/10/14 03:02:49;;;;;;;4.20;3.33;;;8.10;99.90;;;;;;5004833;28;20616;-67
2021/10/14 03:05:15;;;;;;;4.13;3.40;;;8.00;99.90;;;;;;5006096;28;20201;-67
2021/10/14 03:07:40;;;;;;;5.73;3.43;;;8.10;99.90;;;;;;5008591;28;20494;-66
2021/10/14 03:10:07;;;;;;;4.57;3.30;;;8.10;99.90;;;;;;5005218;28;20218;-67
2021/10/14 03:12:33;;;;;;;3.53;3.20;;;7.90;99.90;;;;;;5009488;28;20671;-66
2021/10/14 03:15:02;;;;;;;4.10;3.30;;;7.90;99.90;;;;;;5006821;28;20427;-66
2021/10/14 03:17:28;;;;;;;4.30;3.10;;;7.80;99.90;;;;;;5003787;28;20472;-67
2021/10/14 03:19:54;;;;;;;5.23;4.00;;;7.80;99.90;;;;;;5008002;28;20941;-66
2021/10/14 03:22:19;;;;;;;6.03;3.73;;;7.70;99.90;;;;;;5005189;28;20193;-67
2021/10/14 03:24:45;;;;;;;3.90;3.07;;;7.70;99.90;;;;;;5003850;28;20193;-66
2021/10/14 03:27:10;;;;;;;6.90;3.77;;;7.80;99.90;;;;;;5005523;28;20209;-67
2021/10/14 03:29:36;;;;;;;4.50;3.30;;;7.50;99.90;;;;;;5007366;28;20561;-67
2021/10/14 03:32:02;;;;;;;8.57;3.43;;;7.40;99.90;;;;;;5006002;28;20191;-67
2021/10/14 03:34:28;;;;;;;3.90;3.03;;;7.50;99.90;;;;;;5006412;28;20185;-66
2021/10/14 03:36:54;;;;;;;6.43;3.27;;;7.50;99.90;;;;;;5008054;28;20973;-66
2021/10/14 03:39:19;;;;;;;4.60;3.50;;;7.60;99.90;;;;;;5005775;28;20699;-67
2021/10/14 03:41:45;;;;;;;4.20;3.20;;;7.50;99.90;;;;;;5005871;28;20479;-67
2021/10/14 03:44:13;;;;;;;4.40;3.50;;;7.40;99.90;;;;;;5009139;28;20225;-68
2021/10/14 03:46:40;;;;;;;7.77;3.10;;;7.60;99.90;;;;;;5004135;28;20212;-66
2021/10/14 03:49:08;;;;;;;3.30;3.00;;;7.50;99.90;;;;;;5006425;28;20594;-66
2021/10/14 03:51:34;;;;;;;3.90;3.10;;;7.40;99.90;;;;;;5004966;28;20463;-67
2021/10/14 03:53:59;;;;;;;5.00;3.00;;;7.40;99.90;;;;;;5005452;28;20444;-67
2021/10/14 03:56:25;;;;;;;3.23;2.80;;;7.40;99.90;;;;;;5007563;28;20197;-67
2021/10/14 03:58:51;;;;;;;5.37;3.20;;;7.20;99.90;;;;;;5003813;28;20684;-66
2021/10/14 04:01:17;;;;;;;8.40;3.20;;;7.30;99.90;;;;;;5004172;28;20194;-67
2021/10/14 04:03:43;;;;;;;5.10;3.03;;;7.40;99.90;;;;;;5006184;28;20194;-67
2021/10/14 04:06:08;;;;;;;4.17;3.20;;;7.50;99.90;;;;;;5003628;28;20456;-66
2021/10/14 04:08:34;;;;;;;4.50;3.37;;;7.30;99.90;;;;;;5007264;28;20250;-67
2021/10/14 04:11:00;;;;;;;4.40;2.93;;;7.20;99.90;;;;;;5009336;28;20272;-66
2021/10/14 04:13:25;;;;;;;5.23;4.43;;;7.40;99.90;;;;;;5005231;28;20181;-67
2021/10/14 04:15:51;;;;;;;4.70;3.37;;;7.20;99.90;;;;;;5006171;28;20197;-66
2021/10/14 04:18:16;;;;;;;4.97;3.83;;;7.40;99.90;;;;;;5003505;28;20266;-66
2021/10/14 04:20:42;;;;;;;5.13;3.43;;;7.60;99.90;;;;;;5004519;28;20200;-66
2021/10/14 04:23:08;;;;;;;4.50;3.10;;;7.70;99.90;;;;;;5006481;28;20184;-66
2021/10/14 04:25:34;;;;;;;5.63;3.57;;;7.60;99.90;;;;;;5005301;28;20298;-66
2021/10/14 04:28:01;;;;;;;3.63;3.33;;;7.60;99.90;;;;;;5006186;28;20558;-66
2021/10/14 04:30:27;;;;;;;4.20;3.60;;;7.60;99.90;;;;;;5004859;28;20442;-67
2021/10/14 04:32:53;;;;;;;5.23;3.87;;;7.70;99.90;;;;;;5005892;28;20502;-66
2021/10/14 04:35:19;;;;;;;5.50;3.67;;;7.50;99.90;;;;;;5003221;28;20200;-66
2021/10/14 04:37:45;;;;;;;5.73;3.50;;;7.50;99.90;;;;;;5005962;28;20464;-67
2021/10/14 04:40:12;;;;;;;4.90;3.47;;;7.40;99.90;;;;;;5005423;28;20566;-67
2021/10/14 04:42:37;;;;;;;5.63;3.13;;;7.40;99.90;;;;;;5006825;28;20435;-67
2021/10/14 04:45:04;;;;;;;6.50;3.30;;;7.40;99.90;;;;;;5004232;28;20485;-67
2021/10/14 04:47:29;;;;;;;4.67;4.20;;;7.40;99.90;;;;;;5004358;28;20287;-67
2021/10/14 04:49:55;;;;;;;4.30;3.27;;;7.40;99.90;;;;;;5005087;28;20462;-66
2021/10/14 04:52:21;;;;;;;4.13;3.60;;;7.40;99.90;;;;;;5004008;28;20203;-67
2021/10/14 04:54:46;;;;;;;5.47;3.80;;;7.40;99.90;;;;;;5004859;28;20266;-67
2021/10/14 04:57:12;;;;;;;4.50;2.60;;;7.40;99.90;;;;;;5009643;28;20188;-66
2021/10/14 04:59:38;;;;;;;3.50;3.00;;;7.40;99.90;;;;;;5005354;28;20217;-66
2021/10/14 05:02:04;;;;;;;4.00;3.37;;;7.40;99.90;;;;;;5005258;28;20564;-66
2021/10/14 05:04:29;;;;;;;4.30;3.20;;;7.40;99.90;;;;;;5004289;28;20207;-66
2021/10/14 05:06:55;;;;;;;3.70;3.17;;;7.40;99.90;;;;;;5008291;28;20657;-66
2021/10/14 05:09:21;;;;;;;4.63;3.73;;;7.30;99.90;;;;;;5007033;28;20866;-66
2021/10/14 05:11:46;;;;;;;6.63;3.20;;;7.30;99.90;;;;;;5008024;28;20187;-67
2021/10/14 05:14:12;;;;;;;6.00;3.30;;;7.30;99.90;;;;;;5008428;28;20249;-66
2021/10/14 05:16:38;;;;;;;4.90;3.83;;;7.30;99.90;;;;;;5008444;28;20802;-67
2021/10/14 05:19:04;;;;;;;3.97;3.57;;;7.40;99.90;;;;;;5006959;28;20216;-67
2021/10/14 05:21:31;;;;;;;4.57;3.17;;;7.30;99.90;;;;;;5008756;28;20197;-66
2021/10/14 05:23:59;;;;;;;5.40;3.80;;;7.40;99.90;;;;;;5011678;28;20493;-66
2021/10/14 05:26:30;;;;;;;3.73;3.10;;;7.40;99.90;;;;;;5006121;28;20463;-66
2021/10/14 05:28:56;;;;;;;5.00;3.70;;;7.40;99.90;;;;;;5007799;28;20451;-66
2021/10/14 05:31:22;;;;;;;4.80;4.03;;;7.40;99.90;;;;;;5007426;28;20503;-67
2021/10/14 05:33:49;;;;;;;5.43;3.73;;;7.40;99.90;;;;;;5006779;28;20448;-67
2021/10/14 05:36:15;;;;;;;4.57;3.60;;;7.40;99.90;;;;;;5005788;28;20197;-66
2021/10/14 05:38:41;;;;;;;4.30;3.37;;;7.30;99.90;;;;;;5010650;28;20443;-67
2021/10/14 05:41:07;;;;;;;4.37;3.63;;;7.30;99.90;;;;;;5005501;28;20444;-66
2021/10/14 05:43:32;;;;;;;6.23;4.90;;;7.40;99.90;;;;;;5007302;28;20458;-67
2021/10/14 05:45:58;;;;;;;5.10;4.13;;;7.30;99.90;;;;;;5008324;28;20189;-66
2021/10/14 05:48:24;;;;;;;6.57;4.03;;;7.30;99.90;;;;;;5008915;28;20622;-65
2021/10/14 05:50:49;;;;;;;7.27;4.33;;;7.30;99.90;;;;;;5008648;28;20188;-66
2021/10/14 05:53:15;;;;;;;5.57;4.17;;;7.40;99.90;;;;;;5005944;28;20611;-66
2021/10/14 05:55:41;;;;;;;5.10;4.00;;;7.30;99.90;;;;;;5007603;28;20668;-67
2021/10/14 05:58:06;;;;;;;5.50;3.90;;;7.30;99.90;;;;;;5006996;28;20258;-65
2021/10/14 06:00:32;;;;;;;6.10;4.30;;;7.30;99.90;;;;;;5006786;28;20675;-66
2021/10/14 06:02:58;;;;;;;5.90;4.30;;;7.30;99.90;;;;;;5009859;28;20280;-66
2021/10/14 06:05:23;;;;;;;5.50;4.20;;;7.30;99.90;;;;;;5006728;28;20211;-67
2021/10/14 06:07:49;;;;;;;6.40;4.87;;;7.30;99.90;;;;;;5006984;28;20217;-67
2021/10/14 06:10:15;;;;;;;5.77;4.50;;;7.30;99.90;;;;;;5004582;28;20880;-66
2021/10/14 06:12:41;;;;;;;6.53;5.00;;;7.30;99.90;;;;;;5007682;28;20431;-66
2021/10/14 06:15:07;;;;;;;6.70;5.20;;;7.20;99.90;;;;;;5006368;28;20438;-66
2021/10/14 06:17:33;;;;;;;6.33;5.20;;;7.20;99.90;;;;;;5006829;28;20664;-66
2021/10/14 06:19:59;;;;;;;6.83;4.40;;;7.30;99.90;;;;;;5004813;28;20448;-66
2021/10/14 06:22:25;;;;;;;8.50;5.10;;;7.30;99.90;;;;;;5005915;28;20193;-68
2021/10/14 06:24:50;;;;;;;8.27;6.30;;;7.30;99.90;;;;;;5004740;28;20444;-67
2021/10/14 06:27:16;;;;;;;5.97;4.57;;;7.30;99.90;;;;;;5008185;28;20227;-67
2021/10/14 06:29:41;;;;;;;6.50;4.27;;;7.20;99.90;;;;;;5004578;28;20194;-67
2021/10/14 06:32:07;;;;;;;7.30;4.90;;;7.20;99.90;;;;;;5010394;28;20181;-68
2021/10/14 06:34:33;;;;;;;4.60;3.87;;;7.30;99.90;;;;;;5005388;28;20192;-67
2021/10/14 06:36:58;;;;;;;12.23;5.20;;;7.30;99.90;;;;;;5004734;28;20189;-67
2021/10/14 06:39:24;;;;;;;7.00;4.63;;;7.30;99.90;;;;;;5005160;28;20677;-67
2021/10/14 06:41:50;;;;;;;7.90;4.73;;;7.30;99.90;;;;;;5007656;28;20185;-67
2021/10/14 06:44:16;;;;;;;6.03;5.03;;;7.20;99.90;;;;;;5006210;28;20226;-66
2021/10/14 06:46:41;;;;;;;9.60;5.23;;;7.30;99.90;;;;;;5007636;28;20289;-68
2021/10/14 06:49:07;;;;;;;10.30;4.67;;;7.30;99.90;;;;;;5005344;28;20459;-68
2021/10/14 06:51:36;;;;;;;10.47;4.80;;;7.20;99.90;;;;;;5008866;28;20185;-69
2021/10/14 06:54:01;;;;;;;5.43;4.67;;;7.20;99.90;;;;;;5003719;28;20195;-70
2021/10/14 06:56:27;;;;;;;9.53;4.30;;;7.30;99.90;;;;;;5006136;28;20444;-68
2021/10/14 06:58:52;;;;;;;8.13;4.67;;;7.30;99.90;;;;;;5007021;28;20209;-68
2021/10/14 07:01:18;;;;;;;5.07;4.33;;;7.40;99.90;;;;;;5005166;28;20189;-68
2021/10/14 07:03:44;;;;;;;10.00;5.33;;;7.40;99.90;;;;;;5007177;28;20193;-68
2021/10/14 07:06:10;;;;;;;6.10;5.27;;;7.30;99.90;;;;;;5007345;28;20290;-60
2021/10/14 07:08:35;;;;;;;8.17;5.03;;;7.40;99.90;;;;;;5003913;28;20463;-61
2021/10/14 07:11:01;;;;;;;6.30;4.77;;;7.50;99.90;;;;;;5004056;28;20187;-61
2021/10/14 07:13:27;;;;;;;7.63;4.10;;;7.50;99.90;;;;;;5007236;28;20185;-61
2021/10/14 07:15:52;;;;;;;9.10;4.33;;;7.60;99.90;;;;;;5004443;28;20196;-62
2021/10/14 07:18:18;;;;;;;9.20;4.70;;;7.60;99.90;;;;;;5003980;28;20315;-63
2021/10/14 07:20:44;;;;;;;8.63;4.80;;;7.60;99.90;;;;;;5005084;28;20203;-61
2021/10/14 07:25:39;;;;;;;5.30;4.63;;;7.70;99.90;;;;;;5023691;28;20253;-58
2021/10/14 07:28:05;;;;;;;4.80;4.03;;;7.80;99.90;;;;;;5023401;28;21008;-58
2021/10/14 07:30:32;;;;;;;7.33;4.60;;;8.00;99.90;;;;;;5024885;28;20437;-58
2021/10/14 07:33:03;;;;;;;10.07;5.63;;;8.00;99.90;;;;;;5025237;28;20435;-58
2021/10/14 07:35:33;;;;;;;7.13;5.30;;;8.10;99.90;;;;;;5023689;28;20942;-59
2021/10/14 07:38:00;;;;;;;5.10;4.50;;;8.10;99.90;;;;;;5027109;28;20458;-62
2021/10/14 07:40:26;;;;;;;8.70;5.73;;;8.10;99.90;;;;;;5025708;28;20871;-64
2021/10/14 07:42:52;;;;;;;8.00;5.30;;;8.00;99.90;;;;;;5028024;28;20596;-62
2021/10/14 07:45:17;;;;;;;7.57;5.47;;;8.00;99.90;;;;;;5028400;28;21153;-62
2021/10/14 07:47:43;;;;;;;7.43;4.83;;;8.00;99.90;;;;;;5026868;28;20678;-60
2021/10/14 07:50:09;;;;;;;7.70;5.30;;;8.00;99.90;;;;;;5025891;28;20195;-58
2021/10/14 07:52:34;;;;;;;7.23;5.63;;;8.00;99.90;;;;;;5026699;28;20212;-60
2021/10/14 07:55:00;;;;;;;9.07;5.80;;;8.00;99.90;;;;;;5022997;28;20211;-60
2021/10/14 07:57:26;;;;;;;9.97;6.50;;;8.00;99.90;;;;;;5025688;28;20702;-64
2021/10/14 07:59:51;;;;;;;7.90;5.70;;;8.00;99.90;;;;;;5026936;28;20184;-64
2021/10/14 08:02:17;;;;;;;7.57;5.90;;;8.00;99.90;;;;;;5025611;28;20427;-64
2021/10/14 08:04:44;;;;;;;9.07;5.80;;;8.10;99.90;;;;;;5021901;28;21014;-64
2021/10/14 08:07:10;;;;;;;6.17;5.50;;;8.10;99.90;;;;;;5025717;28;20303;-60
2021/10/14 08:09:37;;;;;;;7.90;6.00;;;8.10;99.90;;;;;;5023172;28;20450;-60
2021/10/14 08:12:02;;;;;;;7.60;6.03;;;8.10;99.90;;;;;;5024496;28;21384;-64
2021/10/14 08:14:28;;;;;;;9.77;6.43;;;8.20;99.90;;;;;;5025625;28;20266;-63
2021/10/14 08:16:54;;;;;;;10.10;6.33;;;8.20;99.90;;;;;;5026281;28;20656;-60
2021/10/14 08:19:20;;;;;;;7.87;6.27;;;8.30;99.90;;;;;;5028209;28;20270;-64
2021/10/14 08:21:46;;;;;;;7.10;5.40;;;8.20;99.90;;;;;;5026511;28;20867;-64
2021/10/14 08:24:11;;;;;;;11.33;6.70;;;8.40;99.90;;;;;;5024612;28;20204;-60
2021/10/14 08:26:37;;;;;;;8.87;6.70;;;8.40;99.90;;;;;;5025586;28;20211;-60
2021/10/14 08:29:02;;;;;;;10.03;6.37;;;8.60;99.90;;;;;;5025300;28;20224;-60
2021/10/14 08:31:28;;;;;;;7.30;5.37;;;8.70;99.90;;;;;;5025205;28;20196;-60
2021/10/14 08:33:54;;;;;;;11.00;5.83;;;8.80;99.90;;;;;;5024472;28;20185;-60
2021/10/14 08:36:20;;;;;;;8.40;5.70;;;8.90;99.90;;;;;;5023730;28;20196;-60
2021/10/14 08:38:47;;;;;;;8.17;6.33;;;9.00;99.90;;;;;;5026229;28;20223;-60
2021/10/14 08:41:17;;;;;;;7.53;5.70;;;9.10;99.90;;;;;;5025027;28;20275;-60
2021/10/14 08:43:44;;;;;;;8.20;5.83;;;9.20;99.90;;;;;;5024016;28;20802;-58
2021/10/14 08:46:10;;;;;;;9.43;5.27;;;9.30;99.90;;;;;;5026716;28;20482;-64
2021/10/14 08:48:36;;;;;;;7.93;5.83;;;9.50;99.90;;;;;;5024418;28;20498;-64
2021/10/14 08:51:02;;;;;;;7.73;5.57;;;9.60;99.90;;;;;;5023172;28;20564;-64
2021/10/14 08:53:28;;;;;;;8.33;5.80;;;9.80;99.90;;;;;;5025100;28;20439;-65
2021/10/14 08:55:55;;;;;;;9.43;6.83;;;9.90;99.90;;;;;;5024277;28;20782;-60
2021/10/14 08:58:21;;;;;;;6.53;5.47;;;10.00;99.90;;;;;;5024783;28;20583;-62
2021/10/14 09:01:05;;;;;;;9.30;6.17;;;10.20;99.90;;;;;;5027793;28;20527;-62
2021/10/14 09:03:31;;;;;;;6.33;5.20;;;10.40;99.90;;;;;;5025791;28;20230;-63
2021/10/14 09:05:57;;;;;;;7.70;6.20;;;10.50;99.90;;;;;;5024270;28;20467;-58
2021/10/14 09:08:38;;;;;;;6.47;5.37;;;10.50;99.90;;;;;;5027610;28;20230;-63
2021/10/14 09:11:17;;;;;;;7.57;5.40;;;10.60;99.90;;;;;;5024930;28;20447;-63
2021/10/14 09:13:52;;;;;;;9.80;6.43;;;10.80;99.90;;;;;;5024182;28;20431;-59
2021/10/14 09:16:25;;;;;;;10.07;5.47;;;10.80;99.90;;;;;;5025819;28;20431;-61
2021/10/14 09:18:51;;;;;;;9.53;6.17;;;10.90;99.90;;;;;;5025235;28;20455;-59
2021/10/14 09:21:29;;;;;;;7.00;5.90;;;11.00;99.90;;;;;;5024650;28;20530;-59
2021/10/14 09:23:58;;;;;;;8.87;5.27;;;11.10;99.90;;;;;;5025204;28;20435;-59
2021/10/14 09:26:29;;;;;;;9.87;5.83;;;11.10;99.90;;;;;;5020734;28;20439;-59
2021/10/14 09:29:06;;;;;;;8.50;5.47;;;11.10;99.90;;;;;;5022915;28;20509;-59
2021/10/14 09:31:49;;;;;;;6.33;5.00;;;11.20;99.90;;;;;;5023698;28;20435;-59
2021/10/14 09:34:37;;;;;;;6.20;4.43;;;11.40;99.90;;;;;;5022784;28;21000;-59
2021/10/14 09:37:24;;;;;;;7.07;5.53;;;11.50;99.90;;;;;;5025758;28;20675;-59
2021/10/14 09:40:01;;;;;;;6.50;5.50;;;11.60;99.90;;;;;;5026086;28;20530;-59
2021/10/14 09:42:42;;;;;;;9.20;5.97;;;11.80;99.90;;;;;;5022419;28;20521;-59
2021/10/14 09:45:17;;;;;;;9.60;6.20;;;11.90;99.90;;;;;;5024975;28;20443;-59
2021/10/14 09:47:48;;;;;;;9.63;5.47;;;12.00;99.90;;;;;;5025915;28;20481;-59
2021/10/14 09:50:14;;;;;;;10.50;5.53;;;12.00;99.90;;;;;;5023379;28;20490;-61
2021/10/14 09:52:40;;;;;;;10.90;5.60;;;12.00;99.90;;;;;;5036617;22;20522;-61
2021/10/14 09:55:05;;;;;;;8.50;5.97;;;12.00;99.90;;;;;;5025435;28;20194;-61
2021/10/14 09:57:31;;;;;;;8.73;5.60;;;11.90;99.90;;;;;;5026314;28;20446;-60
2021/10/14 09:59:57;;;;;;;8.10;6.33;;;11.80;99.90;;;;;;5029346;28;20185;-60
2021/10/14 10:02:23;;;;;;;14.53;6.13;;;11.90;99.90;;;;;;5026372;28;20203;-60
2021/10/14 10:04:51;;;;;;;8.20;5.23;;;12.00;99.90;;;;;;5025088;28;20438;-61
2021/10/14 10:07:17;;;;;;;6.00;5.40;;;11.90;99.90;;;;;;5023050;28;20470;-60
2021/10/14 10:09:43;;;;;;;8.70;5.40;;;12.10;99.90;;;;;;5025583;28;20442;-61
2021/10/14 10:12:10;;;;;;;7.90;6.13;;;12.10;99.90;;;;;;5017243;28;20487;-60
2021/10/14 10:14:36;;;;;;;8.57;5.23;;;12.20;99.90;;;;;;5021139;28;20501;-61
2021/10/14 10:17:11;;;;;;;8.10;5.27;;;12.30;99.90;;;;;;5021288;28;20974;-67
2021/10/14 10:19:47;;;;;;;6.33;5.03;;;12.40;99.90;;;;;;5019374;28;20253;-69
2021/10/14 10:22:35;;;;;;;8.43;5.67;;;12.30;99.90;;;;;;5019045;28;20442;-68
2021/10/14 10:25:19;;;;;;;9.33;5.60;;;12.30;99.90;;;;;;5018074;28;20945;-61
2021/10/14 10:27:45;;;;;;;7.90;5.93;;;12.40;99.90;;;;;;5020536;28;20474;-62
2021/10/14 10:30:35;;;;;;;9.10;6.20;;;12.50;99.90;;;;;;5018259;28;20450;-61
2021/10/14 10:33:01;;;;;;;8.90;5.47;;;12.60;99.90;;;;;;5001197;28;20976;-61
2021/10/14 10:35:43;;;;;;;6.93;5.40;;;12.60;99.90;;;;;;5039035;22;20978;-59
2021/10/14 10:38:34;;;;;;;9.43;5.77;;;12.60;99.90;;;;;;5021231;28;20466;-59
2021/10/14 10:41:02;;;;;;;9.90;6.30;;;12.60;99.90;;;;;;5025116;28;20438;-59
2021/10/14 10:43:29;;;;;;;10.10;5.80;;;12.70;99.90;;;;;;5021780;28;20455;-59
2021/10/14 10:46:06;;;;;;;6.30;5.27;;;12.80;99.90;;;;;;5019889;28;20435;-59
2021/10/14 10:48:40;;;;;;;8.23;5.60;;;12.80;99.90;;;;;;5022997;28;20476;-58
2021/10/14 10:51:07;;;;;;;8.90;5.70;;;12.90;99.90;;;;;;5022470;28;20434;-59
2021/10/14 10:53:48;;;;;;;7.20;4.67;;;13.00;99.90;;;;;;5017940;28;20433;-59
2021/10/14 10:56:36;;;;;;;11.33;5.37;;;13.20;99.90;;;;;;5022536;28;20873;-63
2021/10/14 10:59:02;;;;;;;8.80;4.73;;;13.30;99.90;;;;;;5022218;28;20545;-63
2021/10/14 11:01:28;;;;;;;6.10;4.80;;;13.40;99.90;;;;;;5020738;28;20526;-63
2021/10/14 11:04:02;;;;;;;7.50;4.40;;;13.60;99.90;;;;;;5023250;28;20785;-59
2021/10/14 11:06:30;;;;;;;10.60;5.20;;;13.60;99.90;;;;;;5020086;28;20777;-59
2021/10/14 11:09:05;;;;;;;7.90;4.63;;;13.70;99.90;;;;;;5021288;28;20509;-58
2021/10/14 11:11:32;;;;;;;6.40;4.50;;;13.70;99.90;;;;;;5023307;28;20433;-58
2021/10/14 11:13:59;;;;;;;9.37;4.73;;;13.90;99.90;;;;;;5022900;28;20811;-59
2021/10/14 11:16:26;;;;;;;7.17;4.40;;;14.00;99.90;;;;;;5024543;28;20580;-59
2021/10/14 11:18:55;;;;;;;7.90;4.20;;;14.10;99.90;;;;;;5018130;28;20906;-59
2021/10/14 11:21:23;;;;;;;4.70;4.03;;;14.20;99.90;;;;;;5018285;28;20439;-62
2021/10/14 11:23:51;;;;;;;5.50;4.33;;;14.30;99.90;;;;;;5026811;28;20551;-60
2021/10/14 11:26:30;;;;;;;9.77;4.83;;;14.30;99.90;;;;;;5017158;28;20442;-64
2021/10/14 11:29:01;;;;;;;6.87;3.97;;;14.30;99.90;;;;;;5030141;22;20499;-67
2021/10/14 11:31:36;;;;;;;6.50;4.40;;;14.20;99.90;;;;;;5005727;28;20431;-68
2021/10/14 11:34:10;;;;;;;4.50;3.63;;;14.20;99.90;;;;;;5001429;28;20916;-69
2021/10/14 11:36:37;;;;;;;3.43;3.03;;;14.30;99.90;;;;;;5001976;28;20494;-69
2021/10/14 11:39:11;;;;;;;4.00;3.50;;;14.40;99.90;;;;;;4996315;28;20495;-68
2021/10/14 11:41:41;;;;;;;6.43;4.00;;;14.60;99.90;;;;;;4963752;28;20442;-68
2021/10/14 11:44:09;;;;;;;4.13;3.17;;;14.70;99.90;;;;;;5002084;28;20436;-69
2021/10/14 11:46:38;;;;;;;3.80;2.90;;;15.40;99.90;;;;;;5001182;28;20440;-69
2021/10/14 11:49:06;;;;;;;4.23;3.83;;;16.80;99.90;;;;;;5002014;28;20886;-69
2021/10/14 11:51:32;;;;;;;7.57;3.07;;;18.10;99.90;;;;;;5002372;28;20440;-70
2021/10/14 11:54:07;;;;;;;5.23;3.40;;;19.30;99.90;;;;;;4995852;28;20852;-68
2021/10/14 11:56:50;;;;;;;5.27;3.47;;;20.10;99.90;;;;;;5002242;28;20793;-67
2021/10/14 11:59:21;;;;;;;4.17;3.40;;;21.00;99.90;;;;;;5003050;28;20452;-69
2021/10/14 12:02:08;;;;;;;7.50;3.90;;;22.30;99.90;;;;;;5000758;28;20428;-69
2021/10/14 12:04:42;;;;;;;3.30;2.90;;;23.30;99.90;;;;;;5004076;28;20954;-67
2021/10/14 12:07:09;;;;;;;3.63;3.13;;;23.60;99.20;;;;;;4997129;28;20479;-68
2021/10/14 12:09:40;;;;;;;3.60;2.47;;;23.80;97.70;;;;;;5003247;28;20523;-68
2021/10/14 12:12:06;;;;;;;5.43;3.23;;;24.30;94.50;;;;;;5005758;28;20420;-69
2021/10/14 12:14:31;;;;;;;4.83;3.10;;;24.50;92.60;;;;;;4994228;28;20455;-68
2021/10/14 12:17:15;;;;;;;4.17;2.70;;;23.60;92.50;;;;;;5003014;28;20189;-68
2021/10/14 12:19:50;;;;;;;4.87;3.23;;;23.60;92.20;;;;;;4999803;28;20196;-68
2021/10/14 12:22:22;;;;;;;5.07;2.73;;;25.00;90.80;;;;;;4994620;28;20451;-68
2021/10/14 12:25:03;;;;;;;5.80;3.00;;;25.00;87.20;;;;;;4994170;28;20817;-68
2021/10/14 12:27:51;;;;;;;3.50;2.97;;;24.40;87.70;;;;;;4994030;28;21873;-67
2021/10/14 12:30:37;;;;;;;4.27;3.40;;;24.70;85.90;;;;;;4977214;28;20534;-68
2021/10/14 12:33:12;;;;;;;3.50;2.87;;;24.70;84.10;;;;;;4996443;28;20900;-68
2021/10/14 12:35:50;;;;;;;4.77;2.83;;;24.80;83.30;;;;;;4996379;28;20435;-60
2021/10/14 12:38:16;;;;;;;6.00;3.20;;;24.70;82.70;;;;;;4994601;28;20892;-61
2021/10/14 12:40:57;;;;;;;6.63;3.10;;;24.40;82.30;;;;;;4997157;28;20440;-61
2021/10/14 12:43:33;;;;;;;4.47;2.80;;;25.00;82.20;;;;;;4997187;28;20533;-61
2021/10/14 12:46:19;;;;;;;3.30;3.00;;;25.20;80.80;;;;;;4993960;28;20652;-60
2021/10/14 12:49:12;;;;;;;3.13;2.40;;;25.50;77.70;;;;;;4997454;28;20472;-67
2021/10/14 12:51:41;;;;;;;3.63;2.90;;;24.90;78.80;;;;;;4985482;28;20479;-67
2021/10/14 12:54:13;;;;;;;4.83;2.77;;;25.90;76.50;;;;;;4996419;28;20487;-68
2021/10/14 12:56:44;;;;;;;4.17;3.30;;;26.00;73.80;;;;;;4993019;28;20539;-68
2021/10/14 12:59:12;;;;;;;4.33;3.03;;;25.20;74.30;;;;;;4995118;28;20487;-67